Time;durP1;ratioP1;P1;durP2;ratioP2;P2;SDS_P1;SDS_P2;PMS_P1;PMS_P2;Temp;Humidity;BMP_temperature;BMP_pressure;BME280_temperature;BME280_humidity;BME280_pressure;Samples;Min_cycle;Max_cycle;Signal;HPM_P1;HPM_P2
2022/06/03 00:01:39;;;;;;;1.50;0.43;;;14.60;60.40;;;;;;4979510;28;20050;-76
2022/06/03 00:04:42;;;;;;;0.57;0.32;;;14.50;60.50;;;;;;4992828;28;20054;-77
2022/06/03 00:07:31;;;;;;;0.43;0.43;;;14.40;60.60;;;;;;4992380;28;20109;-77
2022/06/03 00:10:28;;;;;;;0.75;0.35;;;14.40;60.70;;;;;;4974842;28;20066;-77
2022/06/03 00:13:11;;;;;;;0.43;0.43;;;14.40;60.80;;;;;;4992629;28;20080;-77
2022/06/03 00:16:04;;;;;;;0.32;0.32;;;14.30;60.80;;;;;;4976720;28;20062;-77
2022/06/03 00:18:48;;;;;;;0.40;0.40;;;14.30;61.00;;;;;;4992732;28;20042;-77
2022/06/03 00:21:34;;;;;;;0.43;0.43;;;14.20;61.20;;;;;;4975047;28;20058;-77
2022/06/03 00:24:22;;;;;;;0.40;0.40;;;14.20;61.20;;;;;;4975317;28;20478;-76
2022/06/03 00:27:07;;;;;;;0.50;0.50;;;14.20;61.30;;;;;;4992737;28;20486;-77
2022/06/03 00:29:45;;;;;;;0.40;0.40;;;14.10;61.40;;;;;;4992557;28;20046;-76
2022/06/03 00:32:32;;;;;;;0.40;0.40;;;14.10;61.50;;;;;;4992886;28;20042;-77
2022/06/03 00:35:26;;;;;;;0.40;0.40;;;14.10;61.60;;;;;;4992185;28;20130;-77
2022/06/03 00:37:58;;;;;;;0.32;0.32;;;14.10;61.70;;;;;;4992362;28;20042;-76
2022/06/03 00:40:56;;;;;;;0.40;0.40;;;14.10;61.80;;;;;;4974042;28;20093;-77
2022/06/03 00:43:51;;;;;;;0.38;0.38;;;14.00;61.90;;;;;;4962995;28;20447;-77
2022/06/03 00:46:36;;;;;;;0.50;0.50;;;14.00;62.00;;;;;;4992566;28;20069;-77
2022/06/03 00:49:18;;;;;;;0.50;0.50;;;13.90;62.00;;;;;;4992504;28;20398;-76
2022/06/03 00:52:13;;;;;;;0.63;0.43;;;13.90;62.10;;;;;;4959554;28;20042;-76
2022/06/03 00:55:02;;;;;;;0.52;0.45;;;14.00;62.30;;;;;;4962492;28;20050;-77
2022/06/03 00:58:07;;;;;;;0.30;0.30;;;13.90;62.30;;;;;;4991814;28;20104;-76
2022/06/03 01:00:56;;;;;;;0.47;0.40;;;13.90;62.40;;;;;;4977627;28;20074;-77
2022/06/03 01:03:35;;;;;;;0.70;0.50;;;13.90;62.50;;;;;;4992701;28;20042;-78
2022/06/03 01:06:37;;;;;;;0.47;0.40;;;13.80;62.50;;;;;;4992153;28;20487;-77
2022/06/03 01:09:24;;;;;;;0.40;0.40;;;13.80;62.70;;;;;;4974575;28;20137;-77
2022/06/03 01:12:15;;;;;;;0.40;0.40;;;13.80;62.80;;;;;;4992889;28;20170;-76
2022/06/03 01:15:18;;;;;;;0.50;0.50;;;13.80;62.90;;;;;;4964190;28;20046;-77
2022/06/03 01:18:10;;;;;;;0.50;0.50;;;13.80;63.10;;;;;;4995092;28;20043;-77
2022/06/03 01:20:49;;;;;;;;;;;13.70;63.00;;;;;;4995941;28;20541;-77
2022/06/03 01:23:49;;;;;;;0.38;0.38;;;13.70;63.00;;;;;;4995107;28;20397;-76
2022/06/03 01:26:50;;;;;;;0.40;0.40;;;13.70;63.00;;;;;;4980694;28;20053;-77
2022/06/03 01:29:48;;;;;;;0.40;0.32;;;13.70;63.20;;;;;;4980615;28;20050;-77
2022/06/03 01:32:47;;;;;;;0.30;0.30;;;13.60;63.20;;;;;;4994845;28;20157;-77
2022/06/03 01:35:36;;;;;;;0.40;0.40;;;13.60;63.40;;;;;;4995080;28;20042;-77
2022/06/03 01:38:20;;;;;;;0.65;0.50;;;13.60;63.40;;;;;;4977090;28;20066;-77
2022/06/03 01:41:13;;;;;;;0.40;0.40;;;13.60;63.50;;;;;;4977450;28;20502;-76
2022/06/03 01:44:18;;;;;;;0.85;0.55;;;13.60;63.60;;;;;;4978108;28;20042;-77
2022/06/03 01:47:22;;;;;;;0.85;0.50;;;13.60;63.70;;;;;;4994538;28;20106;-77
2022/06/03 01:50:19;;;;;;;0.57;0.50;;;13.70;63.80;;;;;;4995254;28;20082;-77
2022/06/03 01:53:09;;;;;;;0.50;0.40;;;13.60;63.80;;;;;;4994689;28;20042;-77
2022/06/03 01:56:09;;;;;;;0.82;0.50;;;13.60;63.80;;;;;;4994529;28;20491;-77
2022/06/03 01:59:00;;;;;;;0.50;0.40;;;13.60;63.90;;;;;;4993854;28;20050;-77
2022/06/03 02:02:05;;;;;;;0.68;0.40;;;13.60;63.90;;;;;;4994782;28;20394;-77
2022/06/03 02:05:00;;;;;;;0.38;0.38;;;13.50;63.90;;;;;;4965208;28;20045;-77
2022/06/03 02:07:43;;;;;;;0.50;0.50;;;13.50;63.90;;;;;;4994334;28;20042;-77
2022/06/03 02:10:36;;;;;;;0.38;0.35;;;13.60;64.10;;;;;;4994883;28;20058;-77
2022/06/03 02:13:31;;;;;;;0.40;0.40;;;13.60;64.10;;;;;;4994525;28;20049;-76
2022/06/03 02:16:31;;;;;;;0.57;0.40;;;13.60;64.20;;;;;;4994581;28;20046;-77
2022/06/03 02:19:26;;;;;;;0.30;0.30;;;13.60;64.30;;;;;;4976887;28;20490;-77
2022/06/03 02:22:13;;;;;;;0.40;0.40;;;13.50;64.30;;;;;;4994374;28;20399;-76
2022/06/03 02:25:12;;;;;;;0.38;0.38;;;13.50;64.30;;;;;;4993068;28;20502;-76
2022/06/03 02:28:12;;;;;;;0.50;0.40;;;13.50;64.50;;;;;;4993961;28;20069;-76
2022/06/03 02:31:14;;;;;;;0.40;0.40;;;13.50;64.50;;;;;;4980882;28;20049;-77
2022/06/03 02:34:02;;;;;;;0.38;0.38;;;13.50;64.50;;;;;;4963348;28;20050;-77
2022/06/03 02:36:53;;;;;;;0.43;0.43;;;13.50;64.60;;;;;;4976758;28;20112;-76
2022/06/03 02:39:50;;;;;;;0.30;0.30;;;13.60;64.70;;;;;;4976477;28;20429;-77
2022/06/03 02:42:44;;;;;;;0.57;0.57;;;13.50;64.60;;;;;;4994011;28;20450;-77
2022/06/03 02:45:38;;;;;;;0.82;0.43;;;13.50;64.60;;;;;;4976743;28;20052;-77
2022/06/03 02:48:34;;;;;;;0.40;0.40;;;13.50;64.70;;;;;;4993995;28;20050;-77
2022/06/03 02:51:19;;;;;;;0.65;0.63;;;13.50;64.70;;;;;;4979414;28;20116;-77
2022/06/03 02:54:22;;;;;;;0.63;0.60;;;13.50;64.70;;;;;;4993940;28;20065;-76
2022/06/03 02:57:14;;;;;;;0.50;0.40;;;13.50;64.80;;;;;;4982027;28;20450;-76
2022/06/03 03:00:14;;;;;;;0.50;0.50;;;13.50;64.80;;;;;;4994262;28;20046;-76
2022/06/03 03:03:05;;;;;;;0.63;0.50;;;13.50;64.90;;;;;;4993737;28;20047;-77
2022/06/03 03:05:40;;;;;;;;;;;13.50;64.90;;;;;;4994286;28;20120;-76
2022/06/03 03:08:36;;;;;;;0.20;0.20;;;13.50;64.80;;;;;;4974864;28;19925;-77
2022/06/03 03:11:27;;;;;;;0.32;0.32;;;13.50;64.80;;;;;;4993350;28;20065;-76
2022/06/03 03:14:25;;;;;;;0.45;0.45;;;13.50;64.90;;;;;;4994184;28;20435;-77
2022/06/03 03:17:16;;;;;;;0.35;0.35;;;13.50;64.90;;;;;;4993075;28;20128;-76
2022/06/03 03:20:15;;;;;;;0.35;0.30;;;13.40;64.90;;;;;;4993590;28;20054;-77
2022/06/03 03:23:07;;;;;;;0.30;0.30;;;13.40;64.90;;;;;;4993322;28;20049;-77
2022/06/03 03:25:49;;;;;;;0.47;0.47;;;13.40;65.00;;;;;;4993274;28;20050;-76
2022/06/03 03:28:40;;;;;;;0.65;0.40;;;13.50;65.10;;;;;;4993398;28;20053;-76
2022/06/03 03:31:27;;;;;;;0.40;0.40;;;13.40;65.00;;;;;;4975880;28;20074;-77
2022/06/03 03:34:19;;;;;;;0.40;0.40;;;13.40;65.10;;;;;;4975817;28;20038;-77
2022/06/03 03:37:16;;;;;;;0.40;0.40;;;13.40;65.20;;;;;;4993180;28;20068;-77
2022/06/03 03:40:16;;;;;;;0.65;0.40;;;13.40;65.20;;;;;;4975521;28;20065;-77
2022/06/03 03:43:10;;;;;;;0.60;0.60;;;13.30;65.20;;;;;;4992966;28;20490;-77
2022/06/03 03:46:08;;;;;;;0.57;0.50;;;13.30;65.30;;;;;;4975888;28;20041;-77
2022/06/03 03:49:07;;;;;;;0.93;0.50;;;13.30;65.40;;;;;;4992664;28;20132;-77
2022/06/03 03:52:07;;;;;;;0.32;0.32;;;13.30;65.40;;;;;;4992890;28;20046;-77
2022/06/03 03:55:02;;;;;;;0.40;0.40;;;13.30;65.40;;;;;;4992889;28;20038;-76
2022/06/03 03:58:01;;;;;;;0.40;0.40;;;13.40;66.10;;;;;;4962565;28;20042;-76
2022/06/03 04:00:57;;;;;;;0.50;0.50;;;13.40;65.50;;;;;;4975401;28;20490;-77
2022/06/03 04:03:59;;;;;;;0.88;0.50;;;13.40;65.50;;;;;;4975772;28;20034;-77
2022/06/03 04:06:48;;;;;;;0.30;0.30;;;13.30;65.50;;;;;;4993075;28;20035;-78
2022/06/03 04:09:48;;;;;;;0.63;0.50;;;13.30;65.50;;;;;;4992750;28;20046;-77
2022/06/03 04:12:43;;;;;;;0.70;0.70;;;13.30;65.50;;;;;;4962346;28;20482;-76
2022/06/03 04:15:38;;;;;;;0.55;0.55;;;13.40;65.60;;;;;;4993066;28;20054;-76
2022/06/03 04:18:44;;;;;;;0.40;0.40;;;13.30;65.60;;;;;;4992711;28;20050;-76
2022/06/03 04:21:40;;;;;;;0.52;0.45;;;13.30;65.80;;;;;;4992726;28;20109;-76
2022/06/03 04:24:39;;;;;;;0.40;0.40;;;13.30;65.70;;;;;;4992509;28;20050;-77
2022/06/03 04:27:40;;;;;;;0.40;0.40;;;13.30;65.80;;;;;;4963459;28;20141;-77
2022/06/03 04:30:39;;;;;;;0.60;0.60;;;13.30;65.80;;;;;;4992877;28;20038;-77
2022/06/03 04:33:45;;;;;;;0.50;0.50;;;13.30;65.80;;;;;;4992499;28;20045;-77
2022/06/03 04:36:50;;;;;;;0.57;0.40;;;13.30;65.80;;;;;;4980850;28;20065;-75
2022/06/03 04:39:51;;;;;;;0.50;0.50;;;13.30;65.80;;;;;;4992219;28;20045;-76
2022/06/03 04:42:50;;;;;;;0.45;0.45;;;13.20;65.80;;;;;;4964493;28;20526;-76
2022/06/03 04:45:53;;;;;;;0.63;0.60;;;13.20;66.00;;;;;;4992680;28;20042;-75
2022/06/03 04:48:50;;;;;;;0.52;0.40;;;13.30;66.00;;;;;;4992297;28;20129;-77
2022/06/03 04:51:53;;;;;;;0.80;0.52;;;13.20;66.00;;;;;;4977714;28;20104;-76
2022/06/03 04:54:53;;;;;;;0.90;0.57;;;13.30;66.00;;;;;;4992176;28;20049;-76
2022/06/03 04:57:59;;;;;;;0.45;0.45;;;13.30;66.00;;;;;;4977614;28;20046;-77
2022/06/03 05:01:01;;;;;;;1.05;0.57;;;13.30;66.00;;;;;;4950829;28;20046;-76
2022/06/03 05:04:03;;;;;;;0.20;0.20;;;13.30;65.90;;;;;;4978228;28;20056;-76
2022/06/03 05:07:04;;;;;;;0.75;0.60;;;13.50;65.80;;;;;;4992316;28;20058;-76
2022/06/03 05:10:04;;;;;;;0.52;0.50;;;13.50;65.70;;;;;;4991994;28;20047;-77
2022/06/03 05:12:58;;;;;;;0.30;0.30;;;13.60;65.60;;;;;;4992677;28;20042;-76
2022/06/03 05:15:57;;;;;;;0.50;0.40;;;13.70;65.60;;;;;;4992049;28;20046;-77
2022/06/03 05:18:45;;;;;;;0.45;0.45;;;13.70;65.40;;;;;;4980217;28;20085;-77
2022/06/03 05:21:38;;;;;;;1.13;0.68;;;13.90;65.30;;;;;;4974506;28;20042;-77
2022/06/03 05:24:32;;;;;;;0.70;0.60;;;13.90;65.20;;;;;;4992307;28;20488;-76
2022/06/03 05:27:24;;;;;;;0.70;0.68;;;14.00;65.10;;;;;;4992287;28;20137;-76
2022/06/03 05:30:15;;;;;;;0.65;0.60;;;14.10;65.00;;;;;;4973339;28;20546;-77
2022/06/03 05:32:55;;;;;;;;;;;14.20;64.90;;;;;;4992244;28;20109;-76
2022/06/03 05:35:42;;;;;;;0.52;0.52;;;14.20;64.80;;;;;;4991620;28;19913;-75
2022/06/03 05:38:31;;;;;;;0.50;0.50;;;14.40;64.80;;;;;;4991689;28;20047;-76
2022/06/03 05:44:21;;;;;;;0.55;0.50;;;14.50;64.80;;;;;;4980119;28;20057;-76
2022/06/03 05:47:13;;;;;;;0.65;0.65;;;14.50;64.80;;;;;;4991604;28;20042;-77
2022/06/03 05:50:17;;;;;;;0.50;0.50;;;14.50;64.80;;;;;;4991676;28;20057;-76
2022/06/03 05:53:07;;;;;;;0.50;0.50;;;14.60;64.80;;;;;;4991520;28;20109;-77
2022/06/03 05:55:56;;;;;;;0.50;0.50;;;14.60;64.80;;;;;;4991582;28;20100;-76
2022/06/03 05:58:37;;;;;;;0.60;0.60;;;14.60;64.80;;;;;;4992357;28;20085;-79
2022/06/03 06:01:37;;;;;;;0.50;0.50;;;14.60;64.80;;;;;;4994746;28;20096;-78
2022/06/03 06:04:28;;;;;;;0.40;0.40;;;14.70;65.00;;;;;;4975107;28;20092;-78
2022/06/03 06:07:28;;;;;;;0.55;0.40;;;14.70;65.00;;;;;;4980127;28;20451;-78
2022/06/03 06:10:08;;;;;;;0.95;0.70;;;14.80;65.10;;;;;;4994335;28;20061;-78
2022/06/03 06:13:08;;;;;;;0.68;0.68;;;14.80;64.90;;;;;;4978006;28;20051;-77
2022/06/03 06:16:18;;;;;;;1.15;0.70;;;14.80;64.90;;;;;;4996465;28;20054;-82
2022/06/03 06:30:14;;;;;;;1.50;0.82;;;15.30;64.40;;;;;;4796378;29;20054;-77
2022/06/03 06:33:05;;;;;;;0.73;0.70;;;15.30;64.30;;;;;;4805004;29;20043;-76
2022/06/03 06:36:01;;;;;;;0.93;0.73;;;15.50;64.10;;;;;;4804506;29;20526;-76
2022/06/03 06:38:47;;;;;;;0.70;0.70;;;15.60;64.00;;;;;;4793627;29;20051;-75
2022/06/03 06:41:45;;;;;;;0.70;0.60;;;15.70;63.80;;;;;;4789185;29;20039;-78
2022/06/03 06:44:49;;;;;;;0.55;0.55;;;15.80;63.60;;;;;;4774588;29;20038;-76
2022/06/03 06:47:22;;;;;;;0.75;0.65;;;16.00;63.40;;;;;;4804369;29;20488;-77
2022/06/03 06:50:07;;;;;;;0.60;0.60;;;16.20;63.20;;;;;;4804105;29;20050;-77
2022/06/03 06:53:07;;;;;;;1.13;0.80;;;16.30;63.00;;;;;;4789370;29;20542;-76
2022/06/03 06:55:54;;;;;;;0.60;0.60;;;16.40;62.90;;;;;;4804294;29;20070;-76
2022/06/03 06:58:45;;;;;;;1.08;0.70;;;16.60;62.80;;;;;;4774099;29;20046;-79
2022/06/03 07:01:25;;;;;;;1.10;0.85;;;16.70;62.60;;;;;;4835314;29;20056;-81
2022/06/03 07:03:56;;;;;;;1.20;0.70;;;16.90;62.60;;;;;;4971426;28;20089;-79
2022/06/03 07:06:41;;;;;;;0.90;0.70;;;17.00;62.50;;;;;;4994006;28;20057;-74
2022/06/03 07:09:39;;;;;;;0.80;0.80;;;17.10;62.30;;;;;;4993575;28;20062;-75
2022/06/03 07:12:12;;;;;;;0.43;0.43;;;17.40;62.20;;;;;;4996684;28;20486;-77
2022/06/03 07:14:53;;;;;;;0.52;0.52;;;17.50;62.00;;;;;;4977636;28;20495;-76
2022/06/03 07:21:04;;;;;;;0.93;0.80;;;18.00;61.60;;;;;;4993958;28;20039;-78
2022/06/03 07:23:44;;;;;;;0.75;0.70;;;18.20;61.30;;;;;;4964708;28;20387;-80
2022/06/03 07:26:27;;;;;;;0.98;0.90;;;18.40;61.10;;;;;;4994415;28;20069;-80
2022/06/03 07:29:09;;;;;;;1.20;0.70;;;18.60;61.00;;;;;;4977801;28;20049;-79
2022/06/03 07:32:01;;;;;;;0.80;0.80;;;18.90;60.80;;;;;;4977530;28;20039;-78
2022/06/03 07:34:37;;;;;;;0.60;0.60;;;19.10;60.60;;;;;;4993578;28;20042;-77
2022/06/03 07:37:19;;;;;;;0.85;0.60;;;19.30;60.50;;;;;;4993710;28;20121;-79
2022/06/03 07:40:03;;;;;;;1.35;0.85;;;19.40;60.50;;;;;;4975918;28;20050;-80
2022/06/03 07:42:43;;;;;;;0.75;0.75;;;19.30;60.40;;;;;;4977123;28;20050;-80
2022/06/03 07:45:30;;;;;;;0.88;0.80;;;19.40;60.50;;;;;;4976006;28;20047;-80
2022/06/03 07:48:01;;;;;;;0.60;0.60;;;19.60;60.70;;;;;;4999444;28;20125;-82
2022/06/03 07:50:28;;;;;;;;;;;19.70;60.50;;;;;;4961469;28;20117;-80
2022/06/03 07:53:00;;;;;;;1.65;0.65;;;19.90;60.40;;;;;;4978501;28;19918;-81
2022/06/03 07:55:31;;;;;;;0.63;0.63;;;20.30;60.30;;;;;;4976199;28;20073;-84
2022/06/03 07:58:07;;;;;;;0.50;0.50;;;20.40;60.00;;;;;;4943748;28;20053;-84
2022/06/03 08:00:35;;;;;;;0.93;0.70;;;20.50;59.90;;;;;;4997604;28;20035;-80
2022/06/03 08:03:12;;;;;;;0.50;0.50;;;20.70;59.70;;;;;;4961451;28;20042;-80
2022/06/03 08:05:38;;;;;;;1.00;0.80;;;20.90;59.50;;;;;;4959408;28;20043;-81
2022/06/03 08:11:25;;;;;;;0.50;0.50;;;21.20;59.30;;;;;;4993400;28;20038;-85
2022/06/03 08:13:54;;;;;;;0.90;0.70;;;21.40;59.10;;;;;;4975553;28;20464;-80
2022/06/03 08:16:50;;;;;;;0.60;0.60;;;21.50;59.10;;;;;;4991205;28;20118;-85
2022/06/03 08:19:19;;;;;;;0.55;0.55;;;21.50;59.10;;;;;;4994871;28;20042;-80
2022/06/03 08:21:54;;;;;;;1.10;0.73;;;21.70;59.20;;;;;;4976119;28;20046;-80
2022/06/03 08:24:51;;;;;;;0.60;0.52;;;21.80;59.00;;;;;;4961535;28;20269;-84
2022/06/03 08:27:24;;;;;;;0.70;0.70;;;22.00;59.00;;;;;;4964016;28;20034;-83
2022/06/03 08:30:03;;;;;;;0.80;0.60;;;22.20;58.80;;;;;;4977044;28;20054;-82
2022/06/03 08:32:58;;;;;;;0.82;0.80;;;22.20;58.70;;;;;;4994871;28;20046;-81
2022/06/03 08:35:36;;;;;;;0.75;0.70;;;22.20;58.50;;;;;;4937145;29;20062;-82
2022/06/03 08:38:34;;;;;;;1.52;0.90;;;22.40;58.50;;;;;;4905155;29;20481;-86
2022/06/03 08:45:19;;;;;;;0.73;0.73;;;22.50;58.40;;;;;;4869742;29;20104;-82
2022/06/03 08:48:24;;;;;;;0.63;0.55;;;22.80;58.20;;;;;;4879081;29;20041;-81
2022/06/03 08:55:01;;;;;;;0.40;0.40;;;23.10;57.80;;;;;;4832753;29;20073;-84
2022/06/03 09:01:02;;;;;;;0.63;0.63;;;23.40;57.40;;;;;;4808465;29;20070;-81
2022/06/03 09:03:52;;;;;;;0.50;0.50;;;23.50;57.40;;;;;;4810686;29;20093;-82
2022/06/03 09:06:50;;;;;;;0.45;0.45;;;23.60;57.20;;;;;;4831315;29;20048;-82
2022/06/03 09:09:42;;;;;;;0.50;0.50;;;23.80;57.20;;;;;;4868602;29;20045;-79
2022/06/03 09:15:48;;;;;;;0.50;0.50;;;24.00;56.80;;;;;;4862179;29;20525;-83
2022/06/03 09:18:27;;;;;;;0.50;0.50;;;24.00;57.00;;;;;;4860801;29;20033;-84
2022/06/03 09:21:05;;;;;;;0.60;0.60;;;24.20;56.90;;;;;;4877002;29;20520;-79
2022/06/03 09:27:06;;;;;;;0.68;0.68;;;24.30;56.30;;;;;;4808637;29;20039;-83
2022/06/03 09:30:09;;;;;;;0.73;0.40;;;24.30;56.30;;;;;;4815589;29;20075;-83
2022/06/03 09:33:09;;;;;;;0.85;0.50;;;24.40;56.50;;;;;;4832170;29;20145;-81
2022/06/03 09:35:40;;;;;;;0.90;0.60;;;24.60;56.20;;;;;;4871378;29;20033;-79
2022/06/03 09:41:41;;;;;;;0.55;0.55;;;24.60;55.90;;;;;;4835759;29;20106;-82
2022/06/03 09:44:10;;;;;;;0.55;0.55;;;24.50;56.10;;;;;;4831811;29;20061;-79
2022/06/03 09:46:39;;;;;;;0.47;0.47;;;24.50;56.10;;;;;;4828364;29;20129;-83
2022/06/03 09:49:23;;;;;;;0.50;0.50;;;24.60;55.90;;;;;;4812650;29;20138;-84
2022/06/03 09:51:55;;;;;;;0.40;0.40;;;24.70;55.70;;;;;;4806681;29;20068;-83
2022/06/03 09:54:39;;;;;;;0.55;0.40;;;24.90;55.60;;;;;;4805832;29;20069;-81
2022/06/03 09:57:33;;;;;;;0.40;0.40;;;24.90;55.20;;;;;;4807912;29;20038;-83
2022/06/03 10:00:16;;;;;;;0.50;0.40;;;25.00;55.00;;;;;;4806495;29;20411;-80
2022/06/03 10:02:46;;;;;;;0.40;0.40;;;25.30;54.80;;;;;;4816795;29;20047;-82
2022/06/03 10:05:16;;;;;;;0.50;0.50;;;25.50;54.60;;;;;;4904364;29;20040;-81
2022/06/03 10:07:44;;;;;;;0.50;0.50;;;25.60;54.30;;;;;;4903450;29;20056;-82
2022/06/03 10:13:00;;;;;;;0.47;0.47;;;25.70;54.10;;;;;;4973021;28;20530;-80
2022/06/03 10:15:40;;;;;;;1.35;0.60;;;25.70;54.00;;;;;;4980058;28;20035;-81
2022/06/03 10:18:21;;;;;;;0.57;0.57;;;25.60;53.90;;;;;;4998292;28;20050;-79
2022/06/03 10:20:49;;;;;;;0.60;0.60;;;25.50;53.90;;;;;;4978019;28;20050;-77
2022/06/03 10:23:15;;;;;;;0.52;0.50;;;25.50;53.90;;;;;;4994581;28;20479;-77
2022/06/03 10:25:46;;;;;;;1.95;0.60;;;25.40;54.00;;;;;;4977568;28;20045;-77
2022/06/03 10:28:15;;;;;;;0.50;0.50;;;25.50;53.70;;;;;;4994573;28;20042;-77
2022/06/03 10:30:42;;;;;;;0.43;0.43;;;25.40;53.60;;;;;;4995078;28;20034;-77
2022/06/03 10:33:17;;;;;;;0.90;0.60;;;25.50;53.60;;;;;;4977228;28;20504;-76
2022/06/03 10:35:43;;;;;;;1.67;0.50;;;25.50;53.30;;;;;;4994486;28;20045;-76
2022/06/03 10:38:09;;;;;;;1.00;0.73;;;25.40;53.40;;;;;;4994195;28;20394;-77
2022/06/03 10:40:39;;;;;;;0.50;0.50;;;25.50;53.20;;;;;;4977672;28;20115;-76
2022/06/03 10:43:05;;;;;;;;;;;25.40;53.70;;;;;;4977956;28;20113;-77
2022/06/03 10:45:35;;;;;;;0.63;0.63;;;25.30;53.20;;;;;;4993261;28;19948;-78
2022/06/03 10:48:19;;;;;;;0.55;0.55;;;25.30;52.90;;;;;;4994445;28;20406;-78
2022/06/03 10:50:46;;;;;;;0.65;0.65;;;25.30;52.80;;;;;;4933006;28;20047;-77
2022/06/03 11:01:06;;;;;;;0.50;0.50;;;25.20;52.50;;;;;;4994321;28;20100;-77
2022/06/03 11:01:48;;;;;;;0.50;0.50;;;25.40;52.40;;;;;;4994749;28;20085;-76
2022/06/03 11:04:37;;;;;;;0.47;0.47;;;25.40;52.10;;;;;;4994326;28;20131;-77
2022/06/03 11:07:20;;;;;;;0.52;0.52;;;25.60;51.90;;;;;;4994378;28;20026;-76
2022/06/03 11:10:08;;;;;;;0.80;0.60;;;25.80;51.60;;;;;;4993773;28;20047;-77
2022/06/03 11:12:34;;;;;;;0.35;0.35;;;25.80;51.10;;;;;;4993357;28;20554;-77
2022/06/03 11:15:00;;;;;;;0.45;0.45;;;25.70;51.30;;;;;;4977163;28;20054;-77
2022/06/03 11:17:36;;;;;;;0.52;0.52;;;25.70;51.30;;;;;;4976371;28;20438;-77
2022/06/03 11:20:16;;;;;;;0.70;0.70;;;25.90;51.00;;;;;;4993725;28;20034;-76
2022/06/03 11:22:45;;;;;;;;;;;25.90;50.70;;;;;;4994771;28;20077;-78
2022/06/03 11:25:26;;;;;;;0.55;0.55;;;25.70;51.00;;;;;;4993826;28;19906;-76
2022/06/03 11:28:07;;;;;;;0.40;0.40;;;25.60;50.80;;;;;;4976415;28;20030;-76
2022/06/03 11:30:55;;;;;;;0.50;0.50;;;25.60;50.90;;;;;;4993766;28;20035;-77
2022/06/03 11:33:49;;;;;;;0.52;0.52;;;25.60;50.70;;;;;;4994682;28;20109;-76
2022/06/03 11:36:24;;;;;;;0.50;0.50;;;25.60;50.50;;;;;;4977158;28;20442;-77
2022/06/03 11:38:57;;;;;;;0.47;0.47;;;25.60;50.50;;;;;;4978777;28;20050;-76
2022/06/03 11:41:32;;;;;;;0.45;0.43;;;25.60;50.40;;;;;;4993312;28;20038;-76
2022/06/03 11:44:08;;;;;;;0.50;0.50;;;25.60;50.30;;;;;;4946035;28;20053;-77
2022/06/03 11:46:38;;;;;;;0.40;0.40;;;25.70;50.20;;;;;;4976141;28;20050;-77
2022/06/03 11:49:06;;;;;;;0.40;0.40;;;25.70;50.10;;;;;;4979418;28;20053;-79
2022/06/03 11:51:33;;;;;;;0.50;0.50;;;25.80;49.90;;;;;;4960215;28;20034;-78
2022/06/03 11:53:59;;;;;;;0.45;0.45;;;25.90;49.70;;;;;;4976441;28;20034;-78
2022/06/03 11:56:28;;;;;;;0.40;0.40;;;25.90;49.70;;;;;;4993647;28;20085;-78
2022/06/03 11:59:03;;;;;;;0.30;0.30;;;26.00;49.70;;;;;;4992957;28;20093;-77
2022/06/03 12:01:41;;;;;;;0.45;0.40;;;26.00;49.40;;;;;;4993053;28;20497;-76
2022/06/03 12:04:36;;;;;;;0.80;0.30;;;26.20;49.30;;;;;;4992918;28;20074;-77
2022/06/03 12:07:36;;;;;;;0.45;0.45;;;26.20;49.20;;;;;;4978666;28;20041;-76
2022/06/03 12:10:18;;;;;;;0.47;0.47;;;26.30;49.10;;;;;;4973879;28;20455;-77
2022/06/03 12:15:47;;;;;;;0.47;0.47;;;26.10;49.30;;;;;;4992793;28;20089;-77
2022/06/03 12:18:16;;;;;;;;;;;26.10;49.90;;;;;;4976081;28;20042;-77
2022/06/03 12:20:55;;;;;;;0.30;0.30;;;26.10;49.50;;;;;;4992766;28;20474;-78
2022/06/03 12:23:44;;;;;;;0.40;0.40;;;26.00;49.40;;;;;;4993490;28;20042;-78
2022/06/03 12:26:19;;;;;;;0.40;0.40;;;26.10;49.40;;;;;;4962387;28;20502;-77
2022/06/03 12:28:49;;;;;;;0.50;0.50;;;25.90;49.30;;;;;;4975843;28;20557;-77
2022/06/03 12:31:36;;;;;;;0.40;0.40;;;25.90;49.30;;;;;;4992711;28;20061;-75
2022/06/03 12:34:20;;;;;;;0.50;0.40;;;25.80;49.40;;;;;;4992713;28;20039;-77
2022/06/03 12:37:03;;;;;;;0.52;0.40;;;25.90;49.30;;;;;;4992430;28;20445;-77
2022/06/03 12:39:34;;;;;;;0.30;0.30;;;26.00;49.00;;;;;;4975667;28;20046;-76
2022/06/03 12:42:04;;;;;;;0.50;0.50;;;26.00;49.00;;;;;;4992457;28;20034;-77
2022/06/03 12:44:49;;;;;;;0.65;0.32;;;25.90;49.00;;;;;;4992588;28;20042;-76
2022/06/03 12:47:26;;;;;;;0.38;0.38;;;26.00;48.90;;;;;;4977364;28;20042;-77
2022/06/03 12:49:55;;;;;;;0.40;0.40;;;25.90;48.90;;;;;;4975677;28;20517;-75
2022/06/03 12:52:38;;;;;;;0.57;0.40;;;26.00;49.00;;;;;;4992594;28;20034;-75
2022/06/03 12:55:16;;;;;;;0.40;0.40;;;25.90;48.80;;;;;;4992342;28;20391;-75
2022/06/03 12:57:50;;;;;;;0.68;0.30;;;26.00;48.80;;;;;;4974817;28;20031;-75
2022/06/03 13:00:32;;;;;;;0.40;0.40;;;26.00;48.80;;;;;;4993100;28;20038;-78
2022/06/03 13:03:05;;;;;;;0.30;0.30;;;25.90;48.70;;;;;;4975918;28;20026;-75
2022/06/03 13:05:42;;;;;;;0.40;0.40;;;25.90;48.70;;;;;;4992263;28;20061;-76
2022/06/03 13:08:29;;;;;;;0.40;0.40;;;25.90;48.70;;;;;;4994118;28;20367;-77
2022/06/03 13:11:03;;;;;;;0.40;0.40;;;25.90;48.80;;;;;;4995808;28;20034;-76
2022/06/03 13:14:06;;;;;;;0.43;0.43;;;25.80;48.80;;;;;;4996242;28;20046;-77
2022/06/03 13:16:42;;;;;;;0.30;0.30;;;25.70;48.70;;;;;;4984329;28;20060;-77
2022/06/03 13:19:41;;;;;;;0.40;0.40;;;25.60;48.80;;;;;;4995866;28;20050;-78
2022/06/03 13:22:09;;;;;;;0.60;0.50;;;25.60;48.60;;;;;;4980840;28;20043;-78
2022/06/03 13:24:37;;;;;;;0.63;0.50;;;25.50;48.70;;;;;;4995447;28;20197;-76
2022/06/03 13:27:30;;;;;;;0.40;0.40;;;25.50;48.60;;;;;;4995862;28;20046;-78
2022/06/03 13:30:11;;;;;;;0.40;0.40;;;25.40;48.40;;;;;;4998135;28;20043;-76
2022/06/03 13:32:51;;;;;;;0.50;0.50;;;25.50;48.50;;;;;;4979170;28;20041;-75
2022/06/03 13:35:55;;;;;;;0.40;0.40;;;25.50;48.40;;;;;;4982758;28;20039;-78
2022/06/03 13:38:25;;;;;;;0.50;0.50;;;25.50;48.30;;;;;;5001912;28;20042;-76
2022/06/03 13:44:16;;;;;;;0.50;0.47;;;25.60;48.10;;;;;;4995959;28;20130;-77
2022/06/03 13:46:48;;;;;;;0.30;0.30;;;25.50;48.00;;;;;;4976632;28;20045;-78
2022/06/03 13:49:27;;;;;;;0.40;0.40;;;25.60;48.10;;;;;;4995011;28;20053;-78
2022/06/03 13:52:01;;;;;;;1.23;0.52;;;25.60;47.90;;;;;;4995181;28;20062;-77
2022/06/03 13:54:41;;;;;;;0.50;0.50;;;25.70;47.80;;;;;;4994991;28;20039;-77
2022/06/03 13:57:31;;;;;;;0.40;0.40;;;25.70;47.70;;;;;;4961808;28;20093;-77
2022/06/03 14:00:21;;;;;;;0.43;0.43;;;25.70;47.60;;;;;;4981889;28;20093;-78
2022/06/03 14:02:50;;;;;;;0.40;0.40;;;25.70;47.60;;;;;;4981490;28;20030;-77
2022/06/03 14:05:46;;;;;;;0.50;0.50;;;25.70;47.80;;;;;;4998623;28;20053;-76
2022/06/03 14:08:33;;;;;;;0.50;0.50;;;25.60;47.80;;;;;;4998398;28;20125;-77
2022/06/03 14:11:13;;;;;;;0.40;0.40;;;25.50;47.70;;;;;;4995184;28;20054;-77
2022/06/03 14:14:00;;;;;;;0.52;0.52;;;25.50;47.80;;;;;;4977004;28;20057;-77
2022/06/03 14:16:39;;;;;;;0.40;0.40;;;25.50;47.70;;;;;;4978138;28;20042;-77
2022/06/03 14:19:45;;;;;;;0.35;0.35;;;25.50;47.70;;;;;;4994676;28;20050;-76
2022/06/03 14:22:35;;;;;;;0.50;0.50;;;25.50;47.50;;;;;;4986272;28;20062;-76
2022/06/03 14:25:27;;;;;;;0.67;0.50;;;25.50;47.50;;;;;;5003643;28;20034;-75
2022/06/03 14:28:08;;;;;;;0.65;0.50;;;25.50;47.50;;;;;;4994620;28;20043;-74
2022/06/03 14:30:59;;;;;;;0.40;0.40;;;25.50;47.60;;;;;;4977115;28;20034;-75
2022/06/03 14:33:28;;;;;;;0.50;0.50;;;25.50;47.50;;;;;;4980376;28;20030;-77
2022/06/03 14:35:58;;;;;;;0.40;0.40;;;25.60;47.60;;;;;;5012362;28;20034;-76
2022/06/03 14:38:46;;;;;;;0.43;0.35;;;25.60;47.50;;;;;;5013072;28;20077;-76
2022/06/03 14:41:21;;;;;;;0.32;0.32;;;25.70;47.50;;;;;;4994414;28;20031;-76
2022/06/03 14:43:47;;;;;;;0.30;0.30;;;25.60;47.50;;;;;;4994979;28;20069;-75
2022/06/03 14:46:20;;;;;;;0.30;0.30;;;25.60;47.60;;;;;;4990035;28;20034;-78
2022/06/03 14:48:53;;;;;;;0.98;0.40;;;25.60;47.60;;;;;;4998658;28;20043;-76
2022/06/03 14:51:34;;;;;;;0.50;0.50;;;25.70;47.50;;;;;;4978790;28;20041;-76
2022/06/03 14:54:07;;;;;;;0.40;0.40;;;25.70;47.30;;;;;;4994966;28;20050;-76
2022/06/03 14:56:47;;;;;;;0.40;0.40;;;25.60;47.30;;;;;;4976547;28;20113;-76
2022/06/03 14:59:48;;;;;;;0.40;0.40;;;25.50;47.30;;;;;;4976765;28;20443;-75
2022/06/03 15:02:28;;;;;;;;;;;25.50;47.20;;;;;;4963640;28;20030;-76
2022/06/03 15:04:59;;;;;;;0.40;0.40;;;25.50;47.40;;;;;;4993589;28;19906;-77
2022/06/03 15:07:30;;;;;;;0.40;0.40;;;25.50;47.40;;;;;;4994038;28;20073;-75
2022/06/03 15:10:00;;;;;;;0.40;0.40;;;25.50;47.30;;;;;;4978506;28;20557;-75
2022/06/03 15:12:30;;;;;;;0.50;0.50;;;25.50;47.20;;;;;;5000390;28;20038;-76
2022/06/03 15:14:55;;;;;;;0.32;0.32;;;25.50;47.20;;;;;;4997423;28;20027;-76
2022/06/03 15:17:28;;;;;;;0.40;0.40;;;25.50;47.10;;;;;;4983055;28;20092;-75
2022/06/03 15:19:58;;;;;;;0.93;0.55;;;25.50;47.00;;;;;;4980849;28;20097;-76